createdAt,value
2022-09-28T00:01:21.979Z,15.54
2022-09-28T00:03:54.738Z,15.46
2022-09-28T00:06:24.739Z,15.57
2022-09-28T00:08:53.322Z,15.63
2022-09-28T00:11:23.161Z,15.67
2022-09-28T00:13:54.754Z,15.57
2022-09-28T00:16:26.086Z,15.52
2022-09-28T00:18:54.858Z,15.43
2022-09-28T00:21:25.275Z,15.39
2022-09-28T00:24:17.172Z,15.40
2022-09-28T00:26:51.313Z,15.56
2022-09-28T00:29:33.269Z,15.60
2022-09-28T00:32:04.680Z,15.70
2022-09-28T00:34:36.660Z,15.68
2022-09-28T00:37:06.211Z,15.71
2022-09-28T00:39:35.869Z,15.67
2022-09-28T00:42:04.464Z,15.70
2022-09-28T00:44:40.473Z,15.49
2022-09-28T00:47:33.673Z,15.44
2022-09-28T00:50:06.930Z,15.66
2022-09-28T00:52:53.684Z,15.63
2022-09-28T00:55:31.374Z,15.72
2022-09-28T00:58:03.523Z,15.68
2022-09-28T01:00:32.095Z,15.64
2022-09-28T01:03:00.052Z,15.58
2022-09-28T01:05:28.145Z,15.61
2022-09-28T01:07:57.070Z,15.59
2022-09-28T01:10:25.377Z,15.62
2022-09-28T01:12:55.416Z,15.66
2022-09-28T01:15:27.296Z,15.48
2022-09-28T01:17:54.915Z,15.46
2022-09-28T01:20:33.275Z,15.46
2022-09-28T01:23:23.154Z,15.40
2022-09-28T01:26:33.333Z,15.20
2022-09-28T01:29:36.000Z,15.05
2022-09-28T01:32:11.394Z,15.04
2022-09-28T01:34:45.714Z,15.07
2022-09-28T01:37:17.172Z,15.01
2022-09-28T01:39:49.114Z,14.91
2022-09-28T01:42:22.851Z,14.96
2022-09-28T01:44:51.921Z,14.96
2022-09-28T01:47:24.875Z,14.99
2022-09-28T01:49:59.973Z,14.87
2022-09-28T01:52:35.432Z,14.89
2022-09-28T01:55:11.893Z,14.88
2022-09-28T01:57:56.988Z,14.89
2022-09-28T02:00:26.731Z,14.96
2022-09-28T02:03:19.272Z,14.89
2022-09-28T02:06:05.698Z,14.90
2022-09-28T02:08:43.381Z,14.85
2022-09-28T02:11:17.433Z,14.91
2022-09-28T02:13:48.938Z,14.74
2022-09-28T02:16:16.640Z,14.54
2022-09-28T02:18:46.148Z,14.65
2022-09-28T02:21:17.545Z,14.58
2022-09-28T02:23:56.431Z,14.52
2022-09-28T02:26:30.779Z,14.30
2022-09-28T02:28:59.733Z,14.29
2022-09-28T02:31:28.070Z,14.31
2022-09-28T02:33:57.342Z,14.30
2022-09-28T02:36:27.498Z,14.22
2022-09-28T02:38:55.468Z,14.28
2022-09-28T02:41:56.777Z,14.31
2022-09-28T02:44:33.147Z,14.18
2022-09-28T02:47:05.970Z,14.06
2022-09-28T02:49:44.262Z,14.08
2022-09-28T02:52:17.868Z,14.09
2022-09-28T02:55:04.042Z,14.04
2022-09-28T02:58:21.265Z,13.95
2022-09-28T03:00:58.646Z,14.00
2022-09-28T03:03:43.289Z,14.19
2022-09-28T03:06:22.287Z,14.26
2022-09-28T03:09:08.344Z,14.11
2022-09-28T03:11:45.967Z,14.16
2022-09-28T03:14:15.020Z,14.14
2022-09-28T03:16:50.019Z,14.09
2022-09-28T03:19:23.938Z,13.97
2022-09-28T03:21:53.153Z,13.91
2022-09-28T03:24:21.111Z,13.95
2022-09-28T03:26:48.763Z,14.00
2022-09-28T03:29:17.164Z,14.10
2022-09-28T03:31:48.094Z,14.13
2022-09-28T03:34:16.008Z,14.26
2022-09-28T03:36:44.222Z,14.13
2022-09-28T03:39:11.880Z,14.18
2022-09-28T03:41:39.692Z,14.27
2022-09-28T03:44:07.233Z,14.33
2022-09-28T03:46:34.903Z,14.37
2022-09-28T03:49:07.387Z,14.22
2022-09-28T03:51:35.333Z,14.24
2022-09-28T03:54:02.825Z,14.25
2022-09-28T03:56:30.697Z,14.21
2022-09-28T03:58:58.646Z,14.24
2022-09-28T04:01:27.228Z,14.25
2022-09-28T04:03:56.020Z,14.22
2022-09-28T04:06:25.843Z,14.32
2022-09-28T04:08:53.420Z,14.31
2022-09-28T04:11:21.137Z,14.31
2022-09-28T04:13:52.398Z,14.30
2022-09-28T04:16:20.423Z,14.23
2022-09-28T04:19:10.169Z,14.17
2022-09-28T04:21:54.246Z,14.24
2022-09-28T04:24:21.782Z,14.30
2022-09-28T04:26:49.580Z,14.31
2022-09-28T04:29:19.398Z,14.38
2022-09-28T04:31:57.554Z,14.30
2022-09-28T04:34:37.860Z,14.30
2022-09-28T04:37:07.648Z,14.32
2022-09-28T04:39:35.916Z,14.31
2022-09-28T04:42:03.618Z,14.28
2022-09-28T04:44:31.137Z,14.35
2022-09-28T04:47:07.352Z,14.34
2022-09-28T04:49:53.592Z,14.28
2022-09-28T04:52:27.911Z,14.33
2022-09-28T04:54:55.487Z,14.40
2022-09-28T04:57:24.953Z,14.47
2022-09-28T04:59:52.851Z,14.44
2022-09-28T05:02:20.477Z,14.37
2022-09-28T05:05:17.850Z,14.40
2022-09-28T05:08:08.666Z,14.49
2022-09-28T05:10:36.639Z,14.46
2022-09-28T05:13:04.404Z,14.40
2022-09-28T05:15:32.356Z,14.49
2022-09-28T05:18:00.176Z,14.59
2022-09-28T05:20:42.669Z,14.53
2022-09-28T05:23:12.263Z,14.56
2022-09-28T05:25:42.869Z,14.63
2022-09-28T05:28:26.131Z,14.69
2022-09-28T05:31:20.762Z,14.69
2022-09-28T05:34:06.405Z,14.86
2022-09-28T05:36:34.175Z,14.98
2022-09-28T05:39:03.989Z,15.00
2022-09-28T05:41:32.473Z,14.97
2022-09-28T05:44:01.370Z,15.10
2022-09-28T05:46:30.304Z,15.10
2022-09-28T05:49:01.396Z,15.15
2022-09-28T05:51:29.716Z,15.23
2022-09-28T05:54:01.767Z,15.38
2022-09-28T05:56:33.117Z,15.50
2022-09-28T05:59:05.258Z,15.54
2022-09-28T06:01:32.871Z,15.63
2022-09-28T06:04:02.964Z,15.76
2022-09-28T06:06:32.203Z,15.74
2022-09-28T06:08:59.676Z,15.72
2022-09-28T06:11:44.872Z,15.82
2022-09-28T06:14:22.284Z,15.82
2022-09-28T06:16:50.280Z,15.95
2022-09-28T06:19:18.943Z,16.02
2022-09-28T06:22:05.491Z,15.99
2022-09-28T06:24:38.220Z,15.94
2022-09-28T06:27:05.780Z,16.06
2022-09-28T06:29:33.695Z,16.16
2022-09-28T06:32:01.565Z,16.02
2022-09-28T06:34:30.353Z,16.07
2022-09-28T06:36:57.900Z,16.09
2022-09-28T06:39:25.874Z,16.10
2022-09-28T06:41:53.878Z,16.28
2022-09-28T06:44:22.109Z,16.21
2022-09-28T06:47:12.844Z,16.25
2022-09-28T06:50:15.877Z,16.25
2022-09-28T06:53:19.256Z,16.39
2022-09-28T06:56:07.015Z,16.73
2022-09-28T06:58:35.344Z,16.62
2022-09-28T07:01:04.272Z,16.67
2022-09-28T07:03:41.849Z,16.73
2022-09-28T07:06:47.348Z,16.67
2022-09-28T07:09:35.738Z,16.72
2022-09-28T07:12:36.225Z,17.05
2022-09-28T07:15:12.915Z,17.01
2022-09-28T07:17:56.257Z,17.26
2022-09-28T07:20:28.166Z,17.32
2022-09-28T07:23:07.229Z,17.39
2022-09-28T07:25:58.421Z,17.43
2022-09-28T07:28:34.174Z,17.76
2022-09-28T07:31:33.747Z,18.23
2022-09-28T07:34:44.072Z,18.09
2022-09-28T07:37:20.489Z,18.35
2022-09-28T07:40:08.671Z,18.73
2022-09-28T07:42:38.526Z,18.83
2022-09-28T07:45:07.672Z,18.91
2022-09-28T07:47:35.657Z,18.82
2022-09-28T07:50:18.414Z,19.20
2022-09-28T07:52:57.672Z,19.46
2022-09-28T07:55:30.655Z,19.34
2022-09-28T07:58:07.604Z,19.68
2022-09-28T08:00:57.610Z,19.47
2022-09-28T08:03:25.291Z,19.21
2022-09-28T08:06:05.160Z,19.27
2022-09-28T08:08:37.926Z,18.97
2022-09-28T08:11:07.109Z,19.21
2022-09-28T08:13:55.480Z,19.41
2022-09-28T08:16:47.510Z,19.59
2022-09-28T08:19:53.448Z,19.19
2022-09-28T08:22:21.709Z,19.51
2022-09-28T08:24:52.431Z,20.12
2022-09-28T08:27:20.539Z,20.03
2022-09-28T08:29:48.902Z,19.76
2022-09-28T08:32:38.972Z,19.78
2022-09-28T08:35:26.975Z,19.98
2022-09-28T08:38:10.995Z,20.35
2022-09-28T08:41:43.015Z,20.03
2022-09-28T08:48:25.139Z,20.39
2022-09-28T08:51:21.293Z,20.86
2022-09-28T08:54:36.147Z,21.31
2022-09-28T08:57:38.740Z,22.58
2022-09-28T09:00:11.020Z,22.65
2022-09-28T09:02:40.535Z,23.29
2022-09-28T09:05:21.207Z,24.04
2022-09-28T09:08:11.472Z,25.09
2022-09-28T09:10:48.424Z,25.59
2022-09-28T09:13:23.602Z,25.20
2022-09-28T09:15:57.145Z,25.45
2022-09-28T09:18:53.337Z,25.61
2022-09-28T09:21:40.645Z,25.32
2022-09-28T09:24:15.006Z,26.60
2022-09-28T09:26:43.616Z,26.75
2022-09-28T09:29:34.733Z,26.61
2022-09-28T09:32:26.701Z,26.57
2022-09-28T09:35:12.166Z,27.82
2022-09-28T09:38:00.951Z,28.44
2022-09-28T09:40:49.270Z,28.26
2022-09-28T09:44:16.467Z,27.31
2022-09-28T09:46:58.361Z,27.54
2022-09-28T09:49:53.191Z,26.20
2022-09-28T09:52:29.656Z,25.67
2022-09-28T09:55:07.909Z,24.70
2022-09-28T09:58:13.057Z,25.40
2022-09-28T10:00:48.660Z,26.29
2022-09-28T10:03:44.169Z,26.50
2022-09-28T10:06:30.386Z,26.55
2022-09-28T10:09:10.079Z,26.75
2022-09-28T10:11:43.930Z,27.51
2022-09-28T10:14:21.491Z,27.41
2022-09-28T10:17:03.958Z,27.67
2022-09-28T10:20:04.433Z,26.60
2022-09-28T10:22:48.077Z,26.84
2022-09-28T10:25:19.135Z,27.39
2022-09-28T10:27:52.697Z,27.48
2022-09-28T10:30:23.839Z,28.08
2022-09-28T10:32:55.510Z,29.04
2022-09-28T10:35:42.361Z,28.01
2022-09-28T10:38:18.987Z,27.37
2022-09-28T10:41:13.541Z,28.04
2022-09-28T10:44:07.248Z,28.50
2022-09-28T10:46:41.806Z,28.28
2022-09-28T10:49:17.535Z,29.36
2022-09-28T10:51:54.846Z,28.74
2022-09-28T10:54:29.167Z,25.84
2022-09-28T10:57:00.016Z,26.32
2022-09-28T10:59:40.636Z,26.62
2022-09-28T11:02:31.234Z,25.55
2022-09-28T11:05:07.233Z,27.35
2022-09-28T11:07:48.092Z,28.25
2022-09-28T11:10:23.816Z,26.60
2022-09-28T11:12:54.681Z,26.79
2022-09-28T11:15:32.239Z,27.46
2022-09-28T11:18:28.251Z,28.11
2022-09-28T11:21:16.634Z,27.54
2022-09-28T11:24:01.781Z,26.03
2022-09-28T11:26:58.760Z,25.32
2022-09-28T11:29:43.471Z,24.78
2022-09-28T11:32:18.387Z,25.89
2022-09-28T11:35:07.033Z,26.41
2022-09-28T11:38:05.996Z,28.05
2022-09-28T11:41:16.167Z,29.10
2022-09-28T11:43:56.109Z,28.02
2022-09-28T11:46:43.800Z,29.74
2022-09-28T11:49:23.182Z,28.11
2022-09-28T11:51:53.334Z,28.22
2022-09-28T11:54:59.673Z,27.88
2022-09-28T11:57:33.716Z,27.26
2022-09-28T12:00:06.351Z,28.30
2022-09-28T12:02:47.258Z,28.19
2022-09-28T12:05:37.517Z,27.60
2022-09-28T12:08:15.318Z,28.27
2022-09-28T12:11:06.607Z,28.53
2022-09-28T12:14:04.489Z,28.18
2022-09-28T12:19:48.162Z,29.89
2022-09-28T12:22:29.985Z,28.91
2022-09-28T12:24:58.673Z,30.03
2022-09-28T12:27:45.243Z,29.55
2022-09-28T12:30:22.159Z,28.54
2022-09-28T12:32:57.714Z,28.02
2022-09-28T12:35:44.990Z,27.54
2022-09-28T12:38:50.825Z,27.08
2022-09-28T12:41:48.059Z,26.71
2022-09-28T12:44:36.797Z,26.81
2022-09-28T12:47:42.035Z,26.62
2022-09-28T12:50:42.844Z,25.28
2022-09-28T12:53:30.280Z,24.82
2022-09-28T12:56:02.878Z,25.47
2022-09-28T12:58:36.752Z,25.15
2022-09-28T13:01:24.058Z,25.06
2022-09-28T13:04:10.335Z,26.32
2022-09-28T13:06:59.682Z,25.54
2022-09-28T13:09:33.494Z,25.48
2022-09-28T13:12:32.124Z,25.48
2022-09-28T13:15:23.565Z,24.36
2022-09-28T13:18:03.158Z,23.94
2022-09-28T13:21:05.165Z,24.25
2022-09-28T13:23:38.989Z,23.98
2022-09-28T13:26:18.482Z,24.29
2022-09-28T13:28:48.715Z,23.44
2022-09-28T13:31:23.539Z,23.55
2022-09-28T13:33:52.950Z,23.43
2022-09-28T13:36:29.262Z,23.49
2022-09-28T13:38:59.599Z,23.59
2022-09-28T13:41:38.978Z,23.52
2022-09-28T13:44:13.179Z,23.85
2022-09-28T13:46:53.261Z,23.68
2022-09-28T13:49:35.967Z,23.67
2022-09-28T13:52:25.763Z,23.89
2022-09-28T13:54:59.129Z,23.56
2022-09-28T13:57:33.542Z,23.45
2022-09-28T14:00:04.906Z,23.87
2022-09-28T14:02:47.408Z,23.61
2022-09-28T14:05:26.956Z,23.51
2022-09-28T14:07:57.416Z,23.43
2022-09-28T14:10:56.993Z,23.40
2022-09-28T14:13:42.798Z,23.39
2022-09-28T14:16:31.955Z,24.22
2022-09-28T14:19:09.238Z,24.05
2022-09-28T14:22:33.891Z,24.44
2022-09-28T14:25:07.285Z,24.62
2022-09-28T14:27:46.544Z,24.63
2022-09-28T14:30:14.713Z,24.73
2022-09-28T14:33:06.290Z,25.11
2022-09-28T14:35:41.606Z,24.87
2022-09-28T14:38:56.401Z,24.65
2022-09-28T14:41:38.377Z,23.85
2022-09-28T14:44:12.556Z,23.43
2022-09-28T14:46:47.537Z,23.40
2022-09-28T14:49:19.491Z,23.77
2022-09-28T14:51:58.742Z,23.52
2022-09-28T14:54:45.826Z,23.23
2022-09-28T14:57:25.431Z,23.31
2022-09-28T14:59:55.445Z,22.92
2022-09-28T15:02:27.799Z,23.17
2022-09-28T15:05:13.657Z,23.02
2022-09-28T15:07:48.110Z,22.33
2022-09-28T15:10:31.561Z,22.61
2022-09-28T15:13:01.914Z,22.87
2022-09-28T15:15:40.807Z,22.62
2022-09-28T15:18:11.688Z,22.28
2022-09-28T15:20:42.064Z,21.72
2022-09-28T15:23:23.996Z,21.92
2022-09-28T15:25:53.008Z,21.90
2022-09-28T15:28:23.878Z,22.82
2022-09-28T15:31:00.370Z,23.14
2022-09-28T15:33:49.238Z,23.35
2022-09-28T15:36:19.753Z,23.16
2022-09-28T15:38:59.535Z,23.30
2022-09-28T15:41:28.559Z,22.57
2022-09-28T15:44:11.791Z,22.29
2022-09-28T15:46:42.832Z,22.75
2022-09-28T15:49:25.623Z,22.75
2022-09-28T15:51:56.198Z,22.29
2022-09-28T15:54:28.052Z,21.93
2022-09-28T15:57:02.550Z,21.45
2022-09-28T15:59:34.858Z,21.06
2022-09-28T16:02:13.337Z,21.29
2022-09-28T16:04:55.998Z,21.53
2022-09-28T16:07:40.516Z,21.49
2022-09-28T16:10:13.803Z,21.66
2022-09-28T16:12:46.723Z,21.62
2022-09-28T16:15:20.252Z,21.37
2022-09-28T16:17:49.641Z,21.93
2022-09-28T16:20:36.431Z,21.52
2022-09-28T16:23:16.185Z,21.08
2022-09-28T16:26:13.465Z,20.78
2022-09-28T16:28:45.984Z,20.67
2022-09-28T16:31:14.950Z,20.67
2022-09-28T16:33:52.239Z,20.60
2022-09-28T16:36:22.531Z,20.28
2022-09-28T16:38:50.183Z,20.41
2022-09-28T16:41:23.199Z,20.59
2022-09-28T16:43:59.762Z,20.41
2022-09-28T16:46:37.192Z,20.51
2022-09-28T16:49:07.821Z,20.32
2022-09-28T16:51:40.236Z,20.40
2022-09-28T16:54:35.796Z,20.20
2022-09-28T16:57:06.068Z,20.11
2022-09-28T16:59:38.335Z,20.26
2022-09-28T17:02:45.790Z,20.24
2022-09-28T17:05:19.322Z,19.99
2022-09-28T17:08:03.045Z,19.91
2022-09-28T17:11:13.174Z,19.92
2022-09-28T17:13:37.465Z,19.73
2022-09-28T17:16:11.054Z,19.59
2022-09-28T17:18:40.086Z,19.57
2022-09-28T17:21:12.726Z,19.33
2022-09-28T17:23:40.764Z,19.36
2022-09-28T17:26:16.478Z,19.25
2022-09-28T17:28:44.874Z,19.45
2022-09-28T17:31:16.107Z,19.35
2022-09-28T17:33:44.346Z,19.30
2022-09-28T17:36:17.089Z,19.30
2022-09-28T17:38:46.362Z,19.24
2022-09-28T17:41:20.189Z,19.30
2022-09-28T17:43:49.213Z,19.38
2022-09-28T17:46:40.636Z,19.27
2022-09-28T17:49:12.744Z,19.27
2022-09-28T17:51:40.381Z,19.24
2022-09-28T17:54:09.372Z,19.00
2022-09-28T17:56:37.163Z,18.89
2022-09-28T17:59:07.724Z,18.95
2022-09-28T18:01:39.413Z,18.86
2022-09-28T18:04:13.210Z,18.78
2022-09-28T18:06:46.614Z,18.76
2022-09-28T18:09:15.932Z,18.71
2022-09-28T18:11:44.630Z,18.60
2022-09-28T18:14:12.901Z,18.72
2022-09-28T18:16:40.916Z,18.86
2022-09-28T18:19:08.503Z,18.85
2022-09-28T18:21:36.189Z,18.96
2022-09-28T18:24:04.031Z,18.99
2022-09-28T18:26:31.946Z,18.82
2022-09-28T18:28:59.555Z,18.78
2022-09-28T18:31:27.879Z,18.98
2022-09-28T18:34:00.964Z,18.98
2022-09-28T18:36:29.979Z,19.06
2022-09-28T18:38:57.671Z,18.93
2022-09-28T18:41:25.711Z,19.06
2022-09-28T18:44:00.537Z,19.18
2022-09-28T18:46:29.576Z,19.02
2022-09-28T18:48:57.575Z,19.02
2022-09-28T18:51:25.144Z,18.86
2022-09-28T18:53:52.958Z,18.77
2022-09-28T18:56:22.252Z,18.61
2022-09-28T18:58:51.697Z,18.61
2022-09-28T19:01:30.429Z,18.63
2022-09-28T19:04:04.311Z,18.59
2022-09-28T19:06:31.990Z,18.59
2022-09-28T19:09:00.924Z,18.61
2022-09-28T19:11:28.876Z,18.67
2022-09-28T19:13:57.325Z,18.59
2022-09-28T19:16:28.616Z,18.55
2022-09-28T19:18:59.346Z,18.62
2022-09-28T19:21:27.522Z,18.59
2022-09-28T19:23:55.827Z,18.37
2022-09-28T19:26:26.136Z,18.25
2022-09-28T19:28:56.364Z,18.34
2022-09-28T19:31:24.868Z,18.36
2022-09-28T19:33:53.185Z,18.37
2022-09-28T19:36:24.566Z,18.31
2022-09-28T19:38:52.998Z,18.04
2022-09-28T19:41:43.790Z,17.96
2022-09-28T19:44:27.642Z,17.87
2022-09-28T19:47:07.510Z,18.03
2022-09-28T19:49:37.314Z,18.08
2022-09-28T19:52:15.588Z,18.13
2022-09-28T19:54:57.869Z,17.94
2022-09-28T19:57:35.133Z,17.85
2022-09-28T20:00:03.892Z,17.77
2022-09-28T20:02:34.820Z,17.64
2022-09-28T20:05:02.915Z,17.66
2022-09-28T20:07:33.037Z,17.73
2022-09-28T20:10:00.725Z,17.71
2022-09-28T20:12:28.301Z,17.69
2022-09-28T20:14:55.845Z,17.83
2022-09-28T20:17:23.899Z,17.78
2022-09-28T20:19:51.973Z,17.78
2022-09-28T20:22:20.389Z,17.64
2022-09-28T20:24:47.997Z,17.75
2022-09-28T20:27:15.749Z,17.89
2022-09-28T20:29:43.526Z,17.71
2022-09-28T20:32:11.680Z,17.66
2022-09-28T20:34:39.287Z,17.46
2022-09-28T20:37:06.746Z,17.72
2022-09-28T20:39:34.549Z,17.69
2022-09-28T20:42:02.890Z,17.53
2022-09-28T20:44:31.855Z,17.44
2022-09-28T20:47:00.605Z,17.32
2022-09-28T20:49:28.594Z,17.29
2022-09-28T20:51:56.154Z,17.13
2022-09-28T20:54:23.980Z,17.01
2022-09-28T20:56:52.048Z,17.00
2022-09-28T20:59:22.719Z,17.03
2022-09-28T21:01:51.121Z,17.10
2022-09-28T21:04:19.790Z,17.14
2022-09-28T21:06:47.349Z,17.17
2022-09-28T21:09:14.944Z,17.21
2022-09-28T21:11:42.464Z,17.17
2022-09-28T21:14:10.567Z,17.10
2022-09-28T21:16:39.027Z,17.17
2022-09-28T21:19:06.613Z,17.16
2022-09-28T21:21:34.441Z,17.19
2022-09-28T21:24:02.430Z,17.17
2022-09-28T21:26:31.287Z,17.43
2022-09-28T21:29:04.661Z,17.58
2022-09-28T21:31:38.116Z,17.64
2022-09-28T21:34:06.125Z,17.53
2022-09-28T21:36:34.520Z,17.40
2022-09-28T21:39:05.958Z,17.45
2022-09-28T21:41:36.148Z,17.34
2022-09-28T21:44:03.560Z,17.35
2022-09-28T21:46:34.320Z,17.30
2022-09-28T21:49:04.976Z,17.24
2022-09-28T21:51:34.109Z,17.13
2022-09-28T21:54:01.608Z,17.03
2022-09-28T21:56:29.569Z,16.90
2022-09-28T21:58:57.139Z,16.99
2022-09-28T22:01:26.126Z,17.13
2022-09-28T22:03:55.988Z,17.08
2022-09-28T22:06:29.955Z,17.05
2022-09-28T22:08:57.416Z,17.07
2022-09-28T22:11:29.021Z,17.08
2022-09-28T22:14:00.689Z,16.97
2022-09-28T22:16:31.037Z,17.00
2022-09-28T22:18:59.271Z,16.92
2022-09-28T22:21:32.716Z,16.70
2022-09-28T22:24:06.791Z,16.67
2022-09-28T22:26:36.681Z,16.69
2022-09-28T22:29:07.847Z,16.66
2022-09-28T22:31:38.243Z,16.63
2022-09-28T22:34:07.327Z,16.62
2022-09-28T22:36:35.167Z,16.87
2022-09-28T22:39:04.154Z,16.83
2022-09-28T22:41:32.231Z,16.96
2022-09-28T22:44:00.574Z,16.97
2022-09-28T22:46:31.925Z,16.75
2022-09-28T22:49:00.699Z,16.53
2022-09-28T22:51:30.191Z,16.39
2022-09-28T22:53:58.306Z,16.38
2022-09-28T22:56:26.527Z,16.39
2022-09-28T22:58:54.348Z,16.47
2022-09-28T23:01:24.976Z,16.52
2022-09-28T23:03:54.468Z,16.57
2022-09-28T23:06:26.011Z,16.38
2022-09-28T23:08:53.740Z,16.27
2022-09-28T23:11:21.970Z,16.43
2022-09-28T23:13:53.726Z,16.68
2022-09-28T23:16:23.626Z,16.82
2022-09-28T23:18:52.394Z,16.79
2022-09-28T23:21:23.047Z,16.84
2022-09-28T23:23:56.252Z,16.78
2022-09-28T23:26:30.284Z,16.78
2022-09-28T23:28:58.697Z,16.76
2022-09-28T23:31:29.788Z,16.79
2022-09-28T23:34:03.440Z,16.75
2022-09-28T23:36:31.852Z,17.01
2022-09-28T23:38:59.407Z,17.00
2022-09-28T23:41:27.529Z,16.94
2022-09-28T23:43:55.238Z,17.06
2022-09-28T23:46:23.137Z,17.05
2022-09-28T23:48:51.415Z,17.05
2022-09-28T23:51:19.004Z,17.05
2022-09-28T23:53:47.040Z,17.07
2022-09-28T23:56:14.715Z,17.20
2022-09-28T23:58:42.753Z,17.05
